createdAt,value
2018-03-02T00:03:04.084Z,11.60
2018-03-02T00:07:58.400Z,11.37
2018-03-02T00:12:52.740Z,11.77
2018-03-02T00:17:47.069Z,13.93
2018-03-02T00:22:41.379Z,14.57
2018-03-02T00:27:35.810Z,14.37
2018-03-02T00:32:30.414Z,14.07
2018-03-02T00:37:24.729Z,14.10
2018-03-02T00:42:19.846Z,12.87
2018-03-02T00:47:14.152Z,15.43
2018-03-02T00:52:09.267Z,13.70
2018-03-02T00:57:03.602Z,14.20
2018-03-02T01:01:57.999Z,16.23
2018-03-02T01:06:53.280Z,15.57
2018-03-02T01:11:47.611Z,17.77
2018-03-02T01:16:42.657Z,16.63
2018-03-02T01:21:36.936Z,14.40
2018-03-02T01:26:31.978Z,14.17
2018-03-02T01:31:26.298Z,11.80
2018-03-02T01:36:20.603Z,12.23
2018-03-02T01:41:14.956Z,17.40
2018-03-02T01:46:12.022Z,14.93
2018-03-02T01:51:07.060Z,15.47
2018-03-02T01:56:01.375Z,16.27
2018-03-02T02:00:55.700Z,17.00
2018-03-02T02:05:50.009Z,12.53
2018-03-02T02:10:44.386Z,15.77
2018-03-02T02:15:38.797Z,15.10
2018-03-02T02:20:33.271Z,18.40
2018-03-02T02:25:27.594Z,18.60
2018-03-02T02:30:21.949Z,17.10
2018-03-02T02:35:17.046Z,17.10
2018-03-02T02:40:11.383Z,14.20
2018-03-02T02:45:06.775Z,16.27
2018-03-02T02:50:01.106Z,16.77
2018-03-02T02:54:56.236Z,15.67
2018-03-02T02:59:51.503Z,13.87
2018-03-02T03:04:46.379Z,14.73
2018-03-02T03:09:40.775Z,19.07
2018-03-02T03:14:36.204Z,16.50
2018-03-02T03:19:30.652Z,18.00
2018-03-02T03:24:25.235Z,16.10
2018-03-02T03:29:19.605Z,20.03
2018-03-02T03:34:14.203Z,14.30
2018-03-02T03:39:09.277Z,18.10
2018-03-02T03:44:03.589Z,13.07
2018-03-02T03:48:58.144Z,16.27
2018-03-02T03:53:53.320Z,16.90
2018-03-02T03:58:47.646Z,19.90
2018-03-02T04:03:41.980Z,18.07
2018-03-02T04:08:36.407Z,13.13
2018-03-02T04:13:30.765Z,16.70
2018-03-02T04:18:26.235Z,21.43
2018-03-02T04:23:20.578Z,18.57
2018-03-02T04:28:15.091Z,20.30
2018-03-02T04:33:09.521Z,20.37
2018-03-02T04:38:03.834Z,18.00
2018-03-02T04:42:58.172Z,16.33
2018-03-02T04:47:52.491Z,17.20
2018-03-02T04:52:46.806Z,17.63
2018-03-02T04:57:41.911Z,19.03
2018-03-02T05:02:36.316Z,17.83
2018-03-02T05:07:30.677Z,16.17
2018-03-02T05:12:24.999Z,18.97
2018-03-02T05:17:19.336Z,16.87
2018-03-02T05:22:14.422Z,18.57
2018-03-02T05:27:08.962Z,20.40
2018-03-02T05:32:03.435Z,17.93
2018-03-02T05:36:57.787Z,19.97
2018-03-02T05:41:53.003Z,19.30
2018-03-02T05:46:48.162Z,19.70
2018-03-02T05:51:42.496Z,20.60
2018-03-02T05:56:36.891Z,17.13
2018-03-02T06:01:31.241Z,18.33
2018-03-02T06:06:25.781Z,20.00
2018-03-02T06:11:20.093Z,14.70
2018-03-02T06:16:14.401Z,17.37
2018-03-02T06:21:08.936Z,17.63
2018-03-02T06:26:04.158Z,19.70
2018-03-02T06:30:59.256Z,16.53
2018-03-02T06:35:54.027Z,19.97
2018-03-02T06:40:48.648Z,20.57
2018-03-02T06:45:43.300Z,18.53
2018-03-02T06:50:37.635Z,21.00
2018-03-02T06:55:31.996Z,22.27
2018-03-02T07:00:26.351Z,17.53
2018-03-02T07:05:20.885Z,18.40
2018-03-02T07:10:15.231Z,18.97
2018-03-02T07:15:10.309Z,14.47
2018-03-02T07:20:04.834Z,20.07
2018-03-02T07:24:59.323Z,20.87
2018-03-02T07:29:53.824Z,20.17
2018-03-02T07:34:48.175Z,18.33
2018-03-02T07:39:43.688Z,18.67
2018-03-02T07:44:38.820Z,21.37
2018-03-02T07:49:33.928Z,20.50
2018-03-02T07:54:29.884Z,20.23
2018-03-02T07:59:24.343Z,15.13
2018-03-02T08:04:18.729Z,22.47
2018-03-02T08:09:13.994Z,22.07
2018-03-02T08:14:08.384Z,21.17
2018-03-02T08:19:02.711Z,22.03
2018-03-02T08:23:57.866Z,19.67
2018-03-02T08:28:52.175Z,22.37
2018-03-02T08:33:47.392Z,16.97
2018-03-02T08:38:41.737Z,23.00
2018-03-02T08:43:36.092Z,21.60
2018-03-02T08:48:30.577Z,21.07
2018-03-02T08:53:24.921Z,19.47
2018-03-02T08:58:19.227Z,15.03
2018-03-02T09:03:13.562Z,23.03
2018-03-02T09:08:08.651Z,20.17
2018-03-02T09:13:02.991Z,22.23
2018-03-02T09:17:58.166Z,18.97
2018-03-02T09:22:52.504Z,23.73
2018-03-02T09:27:47.612Z,22.03
2018-03-02T09:32:42.713Z,21.80
2018-03-02T09:37:37.067Z,19.57
2018-03-02T09:42:31.468Z,24.73
2018-03-02T09:47:26.563Z,16.77
2018-03-02T09:52:21.659Z,23.63
2018-03-02T09:57:15.983Z,22.87
2018-03-02T10:02:12.160Z,22.13
2018-03-02T10:07:06.497Z,22.07
2018-03-02T10:12:01.073Z,21.77
2018-03-02T10:16:55.396Z,23.10
2018-03-02T10:21:49.721Z,19.00
2018-03-02T10:26:44.038Z,22.57
2018-03-02T10:31:39.220Z,21.57
2018-03-02T10:36:33.526Z,24.57
2018-03-02T10:41:28.015Z,20.70
2018-03-02T10:46:22.323Z,23.23
2018-03-02T10:51:16.668Z,23.73
2018-03-02T10:56:11.814Z,22.87
2018-03-02T11:01:12.240Z,24.03
2018-03-02T11:06:07.221Z,20.30
2018-03-02T11:11:01.543Z,19.07
2018-03-02T11:15:55.856Z,24.00
2018-03-02T11:20:51.166Z,21.60
2018-03-02T11:25:45.495Z,20.23
2018-03-02T11:30:40.592Z,24.87
2018-03-02T11:35:35.845Z,22.97
2018-03-02T11:40:30.293Z,23.67
2018-03-02T11:45:24.725Z,20.87
2018-03-02T11:50:19.872Z,22.27
2018-03-02T11:55:14.991Z,24.67
2018-03-02T12:00:10.041Z,20.33
2018-03-02T12:05:04.362Z,22.13
2018-03-02T12:09:58.763Z,23.13
2018-03-02T12:14:53.086Z,23.20
2018-03-02T12:19:47.451Z,21.10
2018-03-02T12:24:42.173Z,23.00
2018-03-02T12:29:36.700Z,21.80
2018-03-02T12:34:32.545Z,19.80
2018-03-02T12:39:27.647Z,24.17
2018-03-02T12:44:21.947Z,24.53
2018-03-02T12:49:16.309Z,23.47
2018-03-02T12:54:11.795Z,23.67
2018-03-02T12:59:07.023Z,23.13
2018-03-02T13:04:02.180Z,23.40
2018-03-02T13:08:56.785Z,22.00
2018-03-02T13:13:51.119Z,19.97
2018-03-02T13:18:45.479Z,19.03
2018-03-02T13:23:39.793Z,25.20
2018-03-02T13:28:49.180Z,20.30
2018-03-02T13:34:00.581Z,22.63
2018-03-02T13:38:55.066Z,23.00
2018-03-02T13:43:49.391Z,22.53
2018-03-02T13:49:00.757Z,24.17
2018-03-02T13:53:55.136Z,22.10
2018-03-02T13:58:50.245Z,23.57
2018-03-02T14:04:02.388Z,19.77
2018-03-02T14:08:56.712Z,22.73
2018-03-02T14:13:51.050Z,24.23
2018-03-02T14:18:45.197Z,21.73
2018-03-02T14:23:39.714Z,24.50
2018-03-02T14:28:34.427Z,21.37
2018-03-02T14:33:28.779Z,19.70
2018-03-02T14:38:25.725Z,17.20
2018-03-02T14:43:20.077Z,22.70
2018-03-02T14:48:14.467Z,19.73
2018-03-02T14:53:09.188Z,22.87
2018-03-02T14:58:03.569Z,25.00
2018-03-02T15:02:58.909Z,22.93
2018-03-02T15:07:53.211Z,23.07
2018-03-02T15:12:48.154Z,23.27
2018-03-02T15:17:42.740Z,25.73
2018-03-02T15:22:37.082Z,25.33
2018-03-02T15:27:31.436Z,26.07
2018-03-02T15:32:26.848Z,24.93
2018-03-02T15:37:21.809Z,26.90
2018-03-02T15:42:16.163Z,25.20
2018-03-02T15:47:11.532Z,26.10
2018-03-02T15:52:07.233Z,25.23
2018-03-02T15:57:02.530Z,24.70
2018-03-02T16:01:58.094Z,23.23
2018-03-02T16:06:52.461Z,23.50
2018-03-02T16:11:47.193Z,24.63
2018-03-02T16:16:42.325Z,25.13
2018-03-02T16:21:37.443Z,26.37
2018-03-02T16:26:33.651Z,26.97
2018-03-02T16:31:28.052Z,25.53
2018-03-02T16:36:22.397Z,27.27
2018-03-02T16:41:17.517Z,26.77
2018-03-02T16:46:12.251Z,26.67
2018-03-02T16:51:06.709Z,27.23
2018-03-02T16:56:01.061Z,26.37
2018-03-02T17:00:55.385Z,28.47
2018-03-02T17:05:49.972Z,28.60
2018-03-02T17:10:44.293Z,26.47
2018-03-02T17:15:38.615Z,27.40
2018-03-02T17:20:34.458Z,27.73
2018-03-02T17:25:29.563Z,28.07
2018-03-02T17:30:24.242Z,28.23
2018-03-02T17:35:18.811Z,25.90
2018-03-02T17:40:14.365Z,25.23
2018-03-02T17:45:08.973Z,25.97
2018-03-02T17:50:03.285Z,28.20
2018-03-02T17:54:57.607Z,28.70
2018-03-02T17:59:51.920Z,23.07
2018-03-02T18:04:46.445Z,28.87
2018-03-02T18:09:41.379Z,28.37
2018-03-02T18:14:36.265Z,31.30
2018-03-02T18:19:30.935Z,29.43
2018-03-02T18:24:25.957Z,26.07
2018-03-02T18:29:21.738Z,27.67
2018-03-02T18:34:16.332Z,29.80
2018-03-02T18:39:11.125Z,30.63
2018-03-02T18:44:05.780Z,32.27
2018-03-02T18:49:00.703Z,32.20
2018-03-02T18:53:55.962Z,32.37
2018-03-02T18:58:51.363Z,31.90
2018-03-02T19:03:45.828Z,33.53
2018-03-02T19:08:40.188Z,34.83
2018-03-02T19:13:34.774Z,35.27
2018-03-02T19:18:30.094Z,35.70
2018-03-02T19:23:28.010Z,35.13
2018-03-02T19:28:23.232Z,29.50
2018-03-02T19:33:17.734Z,36.27
2018-03-02T19:38:12.202Z,35.50
2018-03-02T19:43:07.291Z,36.00
2018-03-02T19:48:01.859Z,38.63
2018-03-02T19:52:56.214Z,44.07
2018-03-02T19:57:50.516Z,36.83
2018-03-02T20:02:45.149Z,43.27
2018-03-02T20:07:39.520Z,33.50
2018-03-02T20:12:35.472Z,40.37
2018-03-02T20:17:29.918Z,44.27
2018-03-02T20:22:24.309Z,33.10
2018-03-02T20:27:19.433Z,41.60
2018-03-02T20:32:14.069Z,45.07
2018-03-02T20:37:08.643Z,42.27
2018-03-02T20:42:03.101Z,46.07
2018-03-02T20:46:57.596Z,35.80
2018-03-02T20:51:51.927Z,43.10
2018-03-02T20:56:46.293Z,46.63
2018-03-02T21:01:41.365Z,46.17
2018-03-02T21:06:35.714Z,46.30
2018-03-02T21:11:30.810Z,47.40
2018-03-02T21:16:25.214Z,49.17
2018-03-02T21:21:19.742Z,35.03
2018-03-02T21:26:14.876Z,47.60
2018-03-02T21:31:10.029Z,48.27
2018-03-02T21:36:04.087Z,50.17
2018-03-02T21:40:59.851Z,50.30
2018-03-02T21:46:00.307Z,47.90
2018-03-02T21:50:58.005Z,51.63
2018-03-02T21:55:53.351Z,51.53
2018-03-02T22:00:48.913Z,53.77
2018-03-02T22:05:43.317Z,51.90
2018-03-02T22:10:38.845Z,50.33
2018-03-02T22:15:33.267Z,50.77
2018-03-02T22:20:27.697Z,43.80
2018-03-02T22:25:22.278Z,35.93
2018-03-02T22:30:17.148Z,49.30
2018-03-02T22:35:11.507Z,50.77
2018-03-02T22:40:06.060Z,52.17
2018-03-02T22:45:01.610Z,50.07
2018-03-02T22:49:57.178Z,50.70
2018-03-02T22:54:51.537Z,51.73
2018-03-02T22:59:46.796Z,44.73
2018-03-02T23:04:41.441Z,54.03
2018-03-02T23:09:35.784Z,46.63
2018-03-02T23:14:30.156Z,45.77
2018-03-02T23:19:24.499Z,52.93
2018-03-02T23:24:18.831Z,44.97
2018-03-02T23:29:13.163Z,55.70
2018-03-02T23:34:08.533Z,53.40
2018-03-02T23:39:02.861Z,45.40
2018-03-02T23:43:57.190Z,51.90
2018-03-02T23:48:51.526Z,59.37
2018-03-02T23:53:46.625Z,50.93
2018-03-02T23:58:41.065Z,57.27
